Armona, California
Current Conditions -  °F | °C
As of 4:53 PM on Tuesday 21 Oct 2014 (Local Time) from KHJO Reporting Station
Clear Clear  
Wind Chill: 73°   Ceiling: Unl
Heat Index: 73°   Visibility: 10mi
Dew Point: 41°   Wind: 8mph
Humidity: 31%   Direction: 300°WNW
Pressure: 29.97"   Gusts: NA
Location:  36.32°N, 119.71°W
Report Text: KHJO 212353Z AUTO 30007KT 10SM CLR 23/05 A2997 RMK AO2 SLP149 T02280050 10233 20183 56013
Loading
Personal Weather Stations






























Interactive Weather Map
Tropical Storm Tracking
New forecast layout! Learn more

10-Day Weather Forecast

Advertisements
Track Severe Weather on mobile